createdAt,value
2019-02-19T00:00:54.759Z,3.20
2019-02-19T00:03:29.069Z,3.20
2019-02-19T00:06:02.656Z,3.20
2019-02-19T00:08:35.475Z,3.10
2019-02-19T00:11:12.195Z,3.10
2019-02-19T00:13:44.527Z,3.10
2019-02-19T00:16:18.155Z,3.10
2019-02-19T00:18:54.087Z,3.10
2019-02-19T00:21:28.771Z,3.10
2019-02-19T00:24:03.827Z,3.10
2019-02-19T00:26:36.137Z,3.00
2019-02-19T00:29:11.231Z,3.00
2019-02-19T00:31:45.288Z,2.90
2019-02-19T00:34:19.244Z,2.90
2019-02-19T00:36:51.454Z,2.90
2019-02-19T00:39:26.151Z,3.00
2019-02-19T00:41:59.671Z,3.00
2019-02-19T00:44:34.596Z,2.90
2019-02-19T00:47:07.696Z,2.90
2019-02-19T00:49:45.396Z,2.90
2019-02-19T00:52:17.605Z,2.90
2019-02-19T00:54:52.546Z,2.90
2019-02-19T00:57:27.975Z,2.90
2019-02-19T01:00:01.773Z,3.00
2019-02-19T01:02:35.623Z,2.90
2019-02-19T01:05:07.296Z,2.90
2019-02-19T01:07:42.855Z,2.80
2019-02-19T01:10:17.367Z,2.90
2019-02-19T01:12:51.213Z,2.90
2019-02-19T01:15:34.611Z,2.90
2019-02-19T01:18:06.032Z,2.90
2019-02-19T01:20:38.937Z,2.90
2019-02-19T01:23:12.971Z,2.90
2019-02-19T01:25:46.719Z,2.90
2019-02-19T01:28:19.390Z,2.80
2019-02-19T01:30:53.163Z,2.80
2019-02-19T01:33:27.494Z,2.80
2019-02-19T01:36:00.542Z,2.80
2019-02-19T01:38:32.174Z,2.80
2019-02-19T01:41:06.745Z,2.80
2019-02-19T01:43:39.567Z,2.80
2019-02-19T01:46:12.592Z,2.80
2019-02-19T01:48:43.709Z,2.90
2019-02-19T01:51:21.631Z,2.90
2019-02-19T01:53:55.368Z,2.90
2019-02-19T01:56:27.839Z,2.90
2019-02-19T01:58:58.198Z,2.90
2019-02-19T02:01:29.309Z,2.80
2019-02-19T02:04:03.248Z,2.80
2019-02-19T02:06:38.078Z,2.80
2019-02-19T02:09:11.111Z,2.90
2019-02-19T02:11:47.447Z,2.80
2019-02-19T02:14:20.095Z,2.90
2019-02-19T02:16:52.359Z,2.80
2019-02-19T02:19:23.783Z,2.80
2019-02-19T02:21:55.759Z,2.80
2019-02-19T02:24:26.692Z,2.70
2019-02-19T02:26:59.876Z,2.70
2019-02-19T02:29:33.666Z,2.70
2019-02-19T02:32:09.804Z,2.70
2019-02-19T02:35:02.277Z,2.70
2019-02-19T02:37:36.960Z,2.70
2019-02-19T02:40:13.995Z,2.80
2019-02-19T02:42:47.780Z,2.70
2019-02-19T02:45:21.649Z,2.80
2019-02-19T02:47:54.087Z,2.70
2019-02-19T02:50:28.960Z,2.70
2019-02-19T02:53:04.367Z,2.70
2019-02-19T02:55:34.887Z,2.70
2019-02-19T02:58:08.178Z,2.70
2019-02-19T03:00:38.415Z,2.70
2019-02-19T03:03:10.496Z,2.70
2019-02-19T03:05:53.183Z,2.70
2019-02-19T03:08:24.323Z,2.70
2019-02-19T03:10:57.919Z,2.80
2019-02-19T03:13:31.977Z,2.80
2019-02-19T03:16:05.066Z,2.80
2019-02-19T03:18:42.669Z,2.80
2019-02-19T03:21:18.475Z,2.80
2019-02-19T03:23:53.345Z,2.80
2019-02-19T03:26:28.231Z,2.80
2019-02-19T03:28:59.468Z,2.80
2019-02-19T03:31:35.401Z,2.90
2019-02-19T03:34:08.200Z,2.90
2019-02-19T03:36:42.021Z,3.00
2019-02-19T03:39:15.841Z,3.10
2019-02-19T03:41:52.196Z,3.10
2019-02-19T03:44:26.047Z,3.10
2019-02-19T03:47:01.961Z,3.10
2019-02-19T03:49:36.434Z,3.10
2019-02-19T03:52:07.158Z,3.10
2019-02-19T03:54:37.778Z,3.20
2019-02-19T03:57:08.810Z,3.20
2019-02-19T03:59:44.928Z,3.20
2019-02-19T04:02:19.146Z,3.10
2019-02-19T04:04:57.573Z,3.20
2019-02-19T04:07:33.204Z,3.10
2019-02-19T04:10:06.086Z,3.20
2019-02-19T04:12:37.229Z,3.20
2019-02-19T04:15:07.094Z,3.20
2019-02-19T04:17:39.159Z,3.20
2019-02-19T04:20:09.828Z,3.20
2019-02-19T04:22:40.851Z,3.30
2019-02-19T04:25:13.375Z,3.30
2019-02-19T04:27:46.060Z,3.30
2019-02-19T04:30:16.447Z,3.30
2019-02-19T04:32:47.781Z,3.30
2019-02-19T04:35:22.527Z,3.40
2019-02-19T04:37:56.256Z,3.40
2019-02-19T04:40:27.039Z,3.50
2019-02-19T04:42:57.169Z,3.50
2019-02-19T04:45:32.962Z,3.50
2019-02-19T04:48:05.164Z,3.60
2019-02-19T04:50:38.367Z,3.60
2019-02-19T04:53:12.320Z,3.60
2019-02-19T04:55:44.560Z,3.70
2019-02-19T04:58:15.748Z,3.70
2019-02-19T05:00:51.851Z,3.70
2019-02-19T05:03:24.976Z,3.70
2019-02-19T05:05:58.220Z,3.70
2019-02-19T05:08:30.948Z,3.70
2019-02-19T05:11:04.808Z,3.70
2019-02-19T05:13:41.252Z,3.80
2019-02-19T05:16:10.931Z,3.80
2019-02-19T05:18:42.331Z,3.80
2019-02-19T05:21:15.174Z,3.80
2019-02-19T05:23:48.895Z,3.90
2019-02-19T05:26:22.776Z,3.90
2019-02-19T05:28:55.942Z,3.90
2019-02-19T05:31:29.580Z,4.00
2019-02-19T05:34:08.192Z,4.00
2019-02-19T05:36:42.656Z,4.00
2019-02-19T05:39:17.342Z,4.00
2019-02-19T05:41:49.541Z,4.00
2019-02-19T05:44:23.596Z,4.00
2019-02-19T05:47:00.706Z,4.00
2019-02-19T05:49:34.018Z,4.10
2019-02-19T05:52:08.606Z,4.10
2019-02-19T05:54:42.495Z,4.10
2019-02-19T05:57:17.248Z,4.10
2019-02-19T05:59:50.914Z,4.10
2019-02-19T06:02:25.695Z,4.10
2019-02-19T06:05:00.142Z,4.10
2019-02-19T06:07:33.723Z,4.10
2019-02-19T06:10:08.136Z,4.10
2019-02-19T06:12:42.001Z,4.10
2019-02-19T06:15:16.738Z,4.10
2019-02-19T06:17:50.438Z,4.10
2019-02-19T06:20:24.396Z,4.20
2019-02-19T06:22:56.138Z,4.20
2019-02-19T06:25:28.713Z,4.20
2019-02-19T06:28:01.603Z,4.20
2019-02-19T06:30:35.999Z,4.10
2019-02-19T06:33:13.666Z,4.10
2019-02-19T06:35:49.163Z,4.10
2019-02-19T06:38:22.594Z,4.20
2019-02-19T06:40:55.969Z,4.20
2019-02-19T06:43:28.908Z,4.20
2019-02-19T06:46:03.073Z,4.20
2019-02-19T06:48:35.467Z,4.20
2019-02-19T06:51:10.285Z,4.20
2019-02-19T06:53:44.488Z,4.30
2019-02-19T06:56:14.666Z,4.30
2019-02-19T06:58:47.048Z,4.30
2019-02-19T07:01:22.112Z,4.30
2019-02-19T07:04:07.716Z,4.30
2019-02-19T07:06:44.089Z,4.40
2019-02-19T07:09:17.799Z,4.40
2019-02-19T07:11:52.679Z,4.40
2019-02-19T07:14:26.524Z,4.50
2019-02-19T07:17:05.280Z,4.50
2019-02-19T07:19:38.431Z,4.50
2019-02-19T07:22:12.134Z,4.50
2019-02-19T07:24:46.944Z,4.60
2019-02-19T07:27:17.490Z,4.60
2019-02-19T07:29:52.159Z,4.70
2019-02-19T07:32:23.816Z,4.70
2019-02-19T07:34:56.727Z,4.70
2019-02-19T07:37:30.591Z,4.70
2019-02-19T07:40:05.679Z,4.80
2019-02-19T07:42:39.231Z,4.80
2019-02-19T07:45:13.731Z,4.90
2019-02-19T07:47:49.567Z,4.90
2019-02-19T07:50:24.234Z,4.90
2019-02-19T07:53:01.012Z,5.00
2019-02-19T07:55:33.830Z,5.00
2019-02-19T07:58:08.126Z,5.00
2019-02-19T08:00:42.785Z,5.00
2019-02-19T08:03:12.990Z,5.10
2019-02-19T08:05:45.794Z,5.10
2019-02-19T08:08:32.077Z,5.10
2019-02-19T08:11:05.363Z,5.20
2019-02-19T08:13:38.123Z,5.20
2019-02-19T08:16:12.225Z,5.20
2019-02-19T08:18:49.057Z,5.20
2019-02-19T08:21:21.221Z,5.20
2019-02-19T08:23:54.955Z,5.30
2019-02-19T08:26:28.297Z,5.30
2019-02-19T08:29:13.082Z,5.30
2019-02-19T08:31:37.612Z,5.40
2019-02-19T08:34:11.717Z,5.40
2019-02-19T08:36:44.695Z,5.50
2019-02-19T08:39:15.718Z,5.60
2019-02-19T08:41:46.807Z,5.60
2019-02-19T08:44:19.647Z,5.70
2019-02-19T08:46:55.307Z,5.70
2019-02-19T08:49:31.856Z,5.70
2019-02-19T08:52:07.809Z,5.80
2019-02-19T08:54:44.167Z,5.80
2019-02-19T08:57:16.839Z,5.80
2019-02-19T08:59:51.072Z,5.80
2019-02-19T09:02:25.415Z,5.90
2019-02-19T09:04:57.710Z,5.80
2019-02-19T09:07:32.576Z,5.80
2019-02-19T09:10:06.215Z,5.90
2019-02-19T09:12:41.054Z,5.90
2019-02-19T09:15:17.905Z,6.00
2019-02-19T09:17:52.283Z,6.00
2019-02-19T09:20:24.879Z,6.00
2019-02-19T09:22:59.531Z,6.10
2019-02-19T09:25:32.381Z,6.10
2019-02-19T09:28:26.287Z,6.00
2019-02-19T09:31:00.515Z,6.00
2019-02-19T09:33:33.350Z,6.00
2019-02-19T09:36:06.685Z,6.00
2019-02-19T09:38:40.911Z,6.00
2019-02-19T09:41:14.433Z,5.90
2019-02-19T09:43:48.415Z,5.90
2019-02-19T09:46:22.238Z,6.00
2019-02-19T09:48:56.174Z,6.00
2019-02-19T09:51:28.581Z,6.00
2019-02-19T09:54:02.567Z,6.00
2019-02-19T09:56:38.404Z,6.10
2019-02-19T09:59:12.423Z,6.10
2019-02-19T10:01:45.598Z,6.10
2019-02-19T10:04:20.291Z,6.10
2019-02-19T10:06:54.052Z,6.10
2019-02-19T10:09:27.808Z,6.10
2019-02-19T10:12:01.711Z,6.10
2019-02-19T10:14:35.939Z,6.10
2019-02-19T10:17:12.220Z,6.00
2019-02-19T10:19:46.975Z,6.00
2019-02-19T10:22:25.357Z,6.00
2019-02-19T10:25:00.278Z,6.00
2019-02-19T10:27:33.591Z,6.00
2019-02-19T10:30:03.717Z,6.10
2019-02-19T10:32:37.439Z,6.10
2019-02-19T10:35:11.622Z,6.10
2019-02-19T10:37:42.982Z,6.10
2019-02-19T10:40:19.815Z,6.10
2019-02-19T10:42:51.369Z,6.10
2019-02-19T10:45:25.265Z,6.10
2019-02-19T10:48:01.033Z,6.10
2019-02-19T10:50:33.311Z,6.20
2019-02-19T10:53:07.838Z,6.20
2019-02-19T10:55:40.162Z,6.20
2019-02-19T10:58:22.496Z,6.20
2019-02-19T11:01:00.645Z,6.20
2019-02-19T11:03:37.142Z,6.20
2019-02-19T11:06:10.083Z,6.10
2019-02-19T11:08:42.294Z,6.10
2019-02-19T11:11:15.607Z,6.20
2019-02-19T11:13:51.716Z,6.20
2019-02-19T11:16:24.450Z,6.20
2019-02-19T11:18:57.663Z,6.30
2019-02-19T11:21:32.551Z,6.30
2019-02-19T11:24:06.399Z,6.40
2019-02-19T11:26:41.252Z,6.40
2019-02-19T11:29:16.064Z,6.40
2019-02-19T11:31:49.419Z,6.40
2019-02-19T11:34:26.099Z,6.40
2019-02-19T11:37:00.889Z,6.50
2019-02-19T11:39:36.099Z,6.40
2019-02-19T11:42:08.067Z,6.50
2019-02-19T11:44:42.699Z,6.50
2019-02-19T11:47:15.823Z,6.50
2019-02-19T11:49:48.299Z,6.50
2019-02-19T11:52:22.573Z,6.60
2019-02-19T11:54:56.360Z,6.60
2019-02-19T11:57:40.235Z,6.60
2019-02-19T12:00:17.542Z,6.70
2019-02-19T12:02:47.786Z,6.80
2019-02-19T12:05:19.130Z,6.80
2019-02-19T12:07:54.151Z,6.80
2019-02-19T12:10:28.104Z,6.80
2019-02-19T12:13:01.503Z,6.80
2019-02-19T12:15:35.461Z,6.80
2019-02-19T12:18:07.304Z,6.90
2019-02-19T12:20:41.060Z,7.00
2019-02-19T12:23:16.407Z,7.00
2019-02-19T12:25:50.654Z,6.90
2019-02-19T12:28:22.463Z,6.90
2019-02-19T12:30:56.203Z,6.90
2019-02-19T12:33:30.026Z,6.90
2019-02-19T12:36:04.159Z,6.90
2019-02-19T12:38:37.919Z,6.90
2019-02-19T12:41:10.790Z,6.90
2019-02-19T12:43:44.705Z,6.90
2019-02-19T12:46:20.544Z,6.90
2019-02-19T12:48:56.408Z,6.90
2019-02-19T12:51:28.071Z,7.00
2019-02-19T12:54:02.722Z,7.00
2019-02-19T12:56:35.912Z,7.00
2019-02-19T12:59:08.401Z,7.00
2019-02-19T13:01:40.243Z,7.00
2019-02-19T13:04:14.979Z,7.00
2019-02-19T13:06:46.386Z,7.10
2019-02-19T13:09:16.201Z,7.10
2019-02-19T13:11:51.948Z,7.20
2019-02-19T13:14:26.001Z,7.20
2019-02-19T13:17:05.599Z,7.20
2019-02-19T13:19:46.695Z,7.10
2019-02-19T13:22:19.012Z,7.00
2019-02-19T13:24:54.768Z,7.00
2019-02-19T13:27:31.392Z,7.00
2019-02-19T13:30:03.040Z,6.90
2019-02-19T13:32:34.107Z,6.90
2019-02-19T13:35:06.109Z,6.90
2019-02-19T13:37:40.908Z,6.90
2019-02-19T13:40:14.443Z,7.00
2019-02-19T13:42:48.394Z,6.90
2019-02-19T13:45:23.368Z,6.90
2019-02-19T13:48:05.755Z,6.90
2019-02-19T13:50:43.230Z,6.80
2019-02-19T13:53:43.689Z,6.70
2019-02-19T13:56:17.889Z,6.70
2019-02-19T13:58:54.731Z,6.70
2019-02-19T14:01:29.382Z,6.70
2019-02-19T14:04:02.226Z,6.80
2019-02-19T14:06:33.639Z,6.90
2019-02-19T14:09:06.916Z,7.00
2019-02-19T14:11:41.289Z,7.00
2019-02-19T14:14:27.487Z,6.90
2019-02-19T14:17:09.379Z,6.90
2019-02-19T14:19:56.163Z,6.80
2019-02-19T14:22:52.923Z,6.70
2019-02-19T14:25:44.836Z,6.60
2019-02-19T14:28:43.625Z,6.60
2019-02-19T14:31:49.731Z,6.60
2019-02-19T14:34:40.451Z,6.50
2019-02-19T14:37:32.931Z,6.50
2019-02-19T14:40:24.294Z,6.40
2019-02-19T14:43:16.192Z,6.40
2019-02-19T14:46:07.814Z,6.40
2019-02-19T14:49:02.887Z,6.30
2019-02-19T14:51:52.616Z,6.30
2019-02-19T14:55:01.855Z,6.30
2019-02-19T14:57:53.539Z,6.20
2019-02-19T15:00:57.315Z,6.20
2019-02-19T15:03:57.367Z,6.20
2019-02-19T15:06:48.577Z,6.20
2019-02-19T15:09:45.237Z,6.20
2019-02-19T15:12:34.600Z,6.20
2019-02-19T15:15:32.827Z,6.10
2019-02-19T15:18:30.179Z,6.10
2019-02-19T15:21:15.531Z,6.00
2019-02-19T15:24:12.439Z,5.90
2019-02-19T15:27:20.222Z,5.90
2019-02-19T15:30:09.709Z,5.90
2019-02-19T15:33:00.301Z,5.80
2019-02-19T15:35:50.978Z,5.80
2019-02-19T15:38:49.297Z,5.80
2019-02-19T15:41:39.636Z,5.70
2019-02-19T15:44:35.040Z,5.70
2019-02-19T15:47:23.308Z,5.70
2019-02-19T15:50:11.970Z,5.60
2019-02-19T15:53:01.164Z,5.60
2019-02-19T15:56:05.904Z,5.60
2019-02-19T15:59:00.675Z,5.50
2019-02-19T16:02:00.224Z,5.50
2019-02-19T16:04:48.423Z,5.50
2019-02-19T16:07:36.883Z,5.50
2019-02-19T16:10:35.359Z,5.50
2019-02-19T16:13:29.288Z,5.50
2019-02-19T16:16:29.314Z,5.40
2019-02-19T16:19:32.632Z,5.40
2019-02-19T16:22:24.354Z,5.40
2019-02-19T16:25:15.135Z,5.50
2019-02-19T16:28:12.387Z,5.50
2019-02-19T16:31:02.224Z,5.40
2019-02-19T16:33:52.701Z,5.40
2019-02-19T16:36:43.011Z,5.30
2019-02-19T16:39:37.993Z,5.20
2019-02-19T16:42:29.939Z,5.20
2019-02-19T16:45:28.243Z,5.20
2019-02-19T16:48:24.309Z,5.10
2019-02-19T16:51:24.374Z,5.10
2019-02-19T16:54:21.315Z,5.10
2019-02-19T16:57:24.532Z,5.10
2019-02-19T17:00:14.775Z,5.10
2019-02-19T17:03:15.071Z,5.10
2019-02-19T17:06:07.633Z,5.10
2019-02-19T17:08:54.035Z,5.00
2019-02-19T17:11:54.885Z,5.00
2019-02-19T17:14:45.348Z,5.00
2019-02-19T17:17:35.919Z,5.00
2019-02-19T17:20:29.649Z,5.00
2019-02-19T17:23:31.466Z,5.00
2019-02-19T17:26:26.271Z,5.00
2019-02-19T17:29:14.414Z,5.00
2019-02-19T17:32:07.968Z,5.00
2019-02-19T17:34:48.520Z,5.00
2019-02-19T17:37:32.036Z,5.00
2019-02-19T17:40:30.572Z,5.00
2019-02-19T17:43:12.427Z,5.00
2019-02-19T17:45:56.749Z,4.90
2019-02-19T17:48:37.621Z,4.90
2019-02-19T17:51:28.001Z,4.90
2019-02-19T17:54:18.228Z,4.90
2019-02-19T17:57:09.632Z,4.90
2019-02-19T17:59:55.100Z,4.80
2019-02-19T18:02:31.902Z,4.80
2019-02-19T18:05:27.011Z,4.90
2019-02-19T18:08:14.883Z,4.80
2019-02-19T18:11:09.398Z,4.80
2019-02-19T18:13:48.254Z,4.80
2019-02-19T18:16:35.984Z,4.80
2019-02-19T18:19:09.760Z,4.70
2019-02-19T18:21:42.696Z,4.70
2019-02-19T18:24:16.640Z,4.70
2019-02-19T18:26:48.525Z,4.70
2019-02-19T18:29:22.699Z,4.70
2019-02-19T18:31:56.556Z,4.70
2019-02-19T18:34:32.236Z,4.70
2019-02-19T18:37:07.795Z,4.70
2019-02-19T18:39:42.572Z,4.60
2019-02-19T18:42:14.904Z,4.60
2019-02-19T18:44:49.004Z,4.60
2019-02-19T18:47:19.123Z,4.60
2019-02-19T18:49:49.987Z,4.60
2019-02-19T18:52:22.559Z,4.70
2019-02-19T18:54:55.301Z,4.60
2019-02-19T18:57:28.515Z,4.60
2019-02-19T19:00:05.151Z,4.60
2019-02-19T19:02:37.142Z,4.60
2019-02-19T19:05:10.879Z,4.60
2019-02-19T19:07:45.751Z,4.50
2019-02-19T19:10:19.055Z,4.50
2019-02-19T19:12:52.809Z,4.50
2019-02-19T19:15:25.570Z,4.50
2019-02-19T19:18:00.557Z,4.50
2019-02-19T19:20:34.720Z,4.50
2019-02-19T19:23:09.471Z,4.50
2019-02-19T19:25:45.104Z,4.50
2019-02-19T19:28:18.919Z,4.50
2019-02-19T19:30:52.984Z,4.50
2019-02-19T19:33:26.787Z,4.40
2019-02-19T19:35:59.537Z,4.40
2019-02-19T19:38:35.404Z,4.40
2019-02-19T19:41:08.480Z,4.40
2019-02-19T19:43:41.919Z,4.40
2019-02-19T19:46:17.555Z,4.40
2019-02-19T19:48:52.386Z,4.50
2019-02-19T19:51:26.054Z,4.40
2019-02-19T19:53:59.846Z,4.40
2019-02-19T19:56:29.919Z,4.40
2019-02-19T19:59:03.298Z,4.40
2019-02-19T20:01:39.029Z,4.30
2019-02-19T20:04:14.880Z,4.30
2019-02-19T20:06:48.100Z,4.30
2019-02-19T20:09:21.382Z,4.30
2019-02-19T20:11:57.228Z,4.40
2019-02-19T20:14:30.878Z,4.40
2019-02-19T20:17:04.096Z,4.40
2019-02-19T20:19:38.271Z,4.40
2019-02-19T20:22:12.299Z,4.40
2019-02-19T20:25:06.831Z,4.40
2019-02-19T20:27:41.475Z,4.40
2019-02-19T20:30:16.447Z,4.40
2019-02-19T20:32:49.312Z,4.40
2019-02-19T20:35:19.758Z,4.40
2019-02-19T20:37:54.187Z,4.50
2019-02-19T20:40:28.487Z,4.50
2019-02-19T20:43:02.704Z,4.50
2019-02-19T20:45:34.692Z,4.50
2019-02-19T20:48:07.427Z,4.50
2019-02-19T20:50:41.103Z,4.50
2019-02-19T20:53:14.536Z,4.50
2019-02-19T20:55:45.535Z,4.50
2019-02-19T20:58:16.734Z,4.50
2019-02-19T21:00:47.356Z,4.60
2019-02-19T21:03:22.659Z,4.60
2019-02-19T21:05:55.336Z,4.50
2019-02-19T21:08:30.047Z,4.50
2019-02-19T21:11:03.340Z,4.50
2019-02-19T21:13:39.192Z,4.60
2019-02-19T21:16:13.475Z,4.50
2019-02-19T21:18:48.475Z,4.50
2019-02-19T21:21:22.681Z,4.50
2019-02-19T21:23:56.392Z,4.50
2019-02-19T21:26:32.121Z,4.50
2019-02-19T21:29:09.450Z,4.50
2019-02-19T21:31:44.223Z,4.50
2019-02-19T21:34:18.113Z,4.50
2019-02-19T21:36:48.621Z,4.50
2019-02-19T21:39:19.943Z,4.50
2019-02-19T21:41:57.192Z,4.50
2019-02-19T21:44:31.187Z,4.50
2019-02-19T21:47:04.036Z,4.50
2019-02-19T21:49:47.555Z,4.50
2019-02-19T21:52:17.787Z,4.50
2019-02-19T21:54:52.559Z,4.50
2019-02-19T21:57:27.454Z,4.50
2019-02-19T22:00:00.343Z,4.40
2019-02-19T22:02:35.123Z,4.50
2019-02-19T22:05:12.339Z,4.50
2019-02-19T22:07:45.612Z,4.50
2019-02-19T22:10:18.905Z,4.40
2019-02-19T22:12:52.154Z,4.30
2019-02-19T22:15:27.161Z,4.20
2019-02-19T22:18:01.504Z,4.10
2019-02-19T22:20:51.039Z,3.90
2019-02-19T22:23:28.739Z,3.80
2019-02-19T22:26:02.213Z,3.70
2019-02-19T22:28:36.247Z,3.60
2019-02-19T22:31:10.157Z,3.50
2019-02-19T22:33:44.937Z,3.40
2019-02-19T22:36:19.107Z,3.40
2019-02-19T22:38:52.863Z,3.30
2019-02-19T22:41:22.804Z,3.30
2019-02-19T22:43:53.344Z,3.20
2019-02-19T22:46:27.981Z,3.10
2019-02-19T22:49:02.687Z,3.10
2019-02-19T22:51:36.191Z,3.00
2019-02-19T22:54:29.932Z,3.00
2019-02-19T22:57:05.733Z,2.90
2019-02-19T22:59:40.396Z,2.90
2019-02-19T23:02:23.454Z,2.90
2019-02-19T23:04:56.163Z,2.80
2019-02-19T23:07:31.107Z,2.80
2019-02-19T23:10:07.183Z,2.90
2019-02-19T23:12:41.127Z,2.90
2019-02-19T23:15:15.871Z,2.90
2019-02-19T23:17:49.663Z,2.80
2019-02-19T23:20:23.538Z,2.70
2019-02-19T23:22:58.621Z,2.60
2019-02-19T23:25:30.430Z,2.60
2019-02-19T23:28:04.051Z,2.60
2019-02-19T23:30:39.690Z,2.60
2019-02-19T23:33:13.402Z,2.60
2019-02-19T23:35:51.256Z,2.50
2019-02-19T23:38:24.764Z,2.40
2019-02-19T23:40:57.982Z,2.30
2019-02-19T23:43:31.692Z,2.30
2019-02-19T23:46:04.295Z,2.40
2019-02-19T23:48:38.315Z,2.30
2019-02-19T23:51:10.690Z,2.30
2019-02-19T23:53:45.087Z,2.20
2019-02-19T23:56:18.209Z,2.20
2019-02-19T23:58:53.086Z,2.20
